Time;durP1;ratioP1;P1;durP2;ratioP2;P2;SDS_P1;SDS_P2;PMS_P1;PMS_P2;Temp;Humidity;BMP_temperature;BMP_pressure;BME280_temperature;BME280_humidity;BME280_pressure;Samples;Min_cycle;Max_cycle;Signal;HPM_P1;HPM_P2
2023/03/25 00:01:01;;;;;;;9.35;5.70;;;;;;;4.32;89.35;98102.97;7344186;19;20006;-68
2023/03/25 00:03:28;;;;;;;10.02;5.78;;;;;;;4.17;89.53;98096.16;7343328;19;20482;-67
2023/03/25 00:05:53;;;;;;;8.93;6.07;;;;;;;4.17;89.48;98098.78;7343168;19;20029;-76
2023/03/25 00:08:18;;;;;;;8.80;6.20;;;;;;;4.22;89.35;98102.78;7347289;19;20479;-73
2023/03/25 00:10:43;;;;;;;10.25;6.20;;;;;;;4.15;89.37;98093.63;7342897;19;20628;-70
2023/03/25 00:13:07;;;;;;;10.75;5.90;;;;;;;4.12;89.48;98095.63;7346176;19;20033;-69
2023/03/25 00:15:35;;;;;;;9.50;6.07;;;;;;;4.15;89.46;98087.50;7344236;19;20108;-71
2023/03/25 00:18:00;;;;;;;10.13;6.53;;;;;;;4.26;89.30;98085.78;7342671;19;20019;-77
2023/03/25 00:20:26;;;;;;;10.25;5.55;;;;;;;4.19;89.24;98081.03;7344490;19;20011;-68
2023/03/25 00:22:51;;;;;;;8.48;6.00;;;;;;;4.17;89.27;98068.00;7353565;19;20026;-70
2023/03/25 00:25:17;;;;;;;4.82;3.33;;;;;;;4.20;89.08;98072.19;7355203;19;20018;-70
2023/03/25 00:27:44;;;;;;;6.72;4.43;;;;;;;4.18;89.09;98059.09;7351870;19;20024;-68
2023/03/25 00:30:10;;;;;;;7.40;4.75;;;;;;;4.19;88.79;98054.66;7350744;19;20326;-68
2023/03/25 00:32:35;;;;;;;4.93;3.90;;;;;;;4.28;88.79;98056.69;7350279;19;20007;-74
2023/03/25 00:34:59;;;;;;;8.50;5.30;;;;;;;4.21;88.52;98047.50;7342046;19;20015;-67
2023/03/25 00:37:25;;;;;;;8.77;5.88;;;;;;;4.23;88.45;98041.16;7342752;19;20086;-76
2023/03/25 00:39:51;;;;;;;6.95;5.13;;;;;;;4.10;88.44;98042.13;7343996;19;20089;-69
2023/03/25 00:42:24;;;;;;;8.00;5.13;;;;;;;4.05;88.76;98044.28;7341017;19;20043;-69
2023/03/25 00:44:49;;;;;;;10.20;5.25;;;;;;;4.06;88.69;98040.69;7342559;19;20012;-72
2023/03/25 00:47:17;;;;;;;6.93;5.47;;;;;;;4.06;88.77;98030.13;7340957;19;20025;-69
2023/03/25 00:49:42;;;;;;;9.52;5.07;;;;;;;4.07;88.83;98029.16;7341760;19;20014;-66
2023/03/25 00:52:07;;;;;;;7.15;4.22;;;;;;;3.99;88.96;98035.81;7339714;19;20014;-66
2023/03/25 00:54:33;;;;;;;6.47;4.47;;;;;;;3.96;89.17;98035.19;7341605;19;20003;-67
2023/03/25 00:56:57;;;;;;;7.70;5.15;;;;;;;3.95;89.22;98033.53;7341638;19;20024;-70
2023/03/25 00:59:22;;;;;;;10.38;5.20;;;;;;;3.97;89.15;98031.59;7341886;19;20043;-70
2023/03/25 01:01:46;;;;;;;9.75;5.35;;;;;;;3.88;89.29;98027.81;7347361;19;20020;-67
2023/03/25 01:04:12;;;;;;;8.30;5.10;;;;;;;3.98;89.20;98026.22;7341966;19;20048;-69
2023/03/25 01:06:43;;;;;;;6.72;4.63;;;;;;;3.99;89.07;98016.53;7338791;19;20021;-70
2023/03/25 01:09:08;;;;;;;7.38;5.15;;;;;;;3.96;89.22;98017.59;7347547;19;20663;-68
2023/03/25 01:11:36;;;;;;;7.45;4.40;;;;;;;4.02;89.26;98021.59;7345261;19;20022;-70
2023/03/25 01:14:03;;;;;;;8.95;5.05;;;;;;;4.00;89.33;98024.34;7337636;19;20018;-69
2023/03/25 01:16:28;;;;;;;9.13;4.93;;;;;;;3.95;89.69;98023.81;7343076;19;20089;-69
2023/03/25 01:18:54;;;;;;;7.30;5.30;;;;;;;3.97;89.95;98027.19;7343579;19;20010;-70
2023/03/25 01:21:18;;;;;;;6.13;4.57;;;;;;;4.01;89.89;98010.19;7341168;19;20103;-70
2023/03/25 01:23:43;;;;;;;8.73;4.80;;;;;;;4.14;89.78;98023.38;7340982;19;20015;-68
2023/03/25 01:26:08;;;;;;;7.25;5.07;;;;;;;4.10;89.72;98026.31;7341421;19;20033;-68
2023/03/25 01:28:34;;;;;;;10.43;5.20;;;;;;;4.16;89.69;98003.00;7341171;19;20002;-69
2023/03/25 01:31:05;;;;;;;8.30;5.18;;;;;;;4.29;89.35;98005.56;7340824;19;20018;-68
2023/03/25 01:33:31;;;;;;;7.10;5.03;;;;;;;4.30;89.15;97994.91;7345414;19;20136;-70
2023/03/25 01:35:56;;;;;;;5.80;4.40;;;;;;;4.40;89.08;97995.13;7341104;19;20021;-69
2023/03/25 01:38:21;;;;;;;5.80;4.40;;;;;;;4.39;89.02;97988.16;7342836;19;20010;-66
2023/03/25 01:40:46;;;;;;;9.30;5.07;;;;;;;4.47;88.53;97979.66;7340754;19;20543;-66
2023/03/25 01:43:12;;;;;;;5.50;3.80;;;;;;;4.45;88.48;97981.56;7344825;19;20006;-67
2023/03/25 01:45:37;;;;;;;7.05;3.78;;;;;;;4.50;88.36;97980.28;7345379;19;20003;-67
2023/03/25 01:48:14;;;;;;;4.72;3.92;;;;;;;4.52;88.19;97973.09;7344047;19;20101;-67
2023/03/25 01:50:44;;;;;;;7.40;3.85;;;;;;;4.46;88.02;97968.28;7344360;19;20275;-67
2023/03/25 01:53:10;;;;;;;6.25;4.40;;;;;;;4.45;87.95;97957.81;7341999;19;20018;-69
2023/03/25 01:55:37;;;;;;;7.40;3.50;;;;;;;4.47;87.95;97950.66;7344892;19;20377;-68
2023/03/25 01:58:09;;;;;;;8.50;3.72;;;;;;;4.35;88.23;97953.22;7343337;19;20027;-67
2023/03/25 02:00:34;;;;;;;4.78;3.55;;;;;;;4.39;88.17;97956.50;7342981;19;20752;-67
2023/03/25 02:03:00;;;;;;;7.07;4.18;;;;;;;4.31;88.39;97949.13;7345964;19;20469;-67
2023/03/25 02:06:01;;;;;;;5.10;3.95;;;;;;;4.42;88.34;97950.13;7347378;19;20419;-69
2023/03/25 02:08:26;;;;;;;4.45;3.30;;;;;;;4.35;88.34;97949.75;7346313;19;20114;-67
2023/03/25 02:10:51;;;;;;;7.70;4.65;;;;;;;4.32;88.23;97952.59;7351526;19;20010;-67
2023/03/25 02:13:19;;;;;;;7.50;4.68;;;;;;;4.36;88.32;97946.16;7351299;19;20007;-65
2023/03/25 02:16:01;;;;;;;7.15;4.53;;;;;;;4.35;88.53;97952.38;7356991;19;20014;-67
2023/03/25 02:18:31;;;;;;;5.60;3.90;;;;;;;4.30;88.49;97957.97;7360979;19;20018;-66
2023/03/25 02:21:16;;;;;;;7.60;4.25;;;;;;;4.25;88.68;97948.75;7357897;19;20011;-66
2023/03/25 02:24:14;;;;;;;7.78;4.60;;;;;;;4.36;88.50;97947.00;7348773;19;20577;-65
2023/03/25 02:27:13;;;;;;;3.25;2.72;;;;;;;4.45;88.42;97939.34;7354791;19;20021;-69
2023/03/25 02:29:52;;;;;;;6.28;4.10;;;;;;;4.35;88.64;97931.28;7353182;19;20357;-68
2023/03/25 02:32:30;;;;;;;5.15;4.13;;;;;;;4.39;88.54;97919.56;7348438;19;20173;-68
2023/03/25 02:35:21;;;;;;;7.97;4.55;;;;;;;4.44;88.39;97913.91;7347018;19;20029;-75
2023/03/25 02:37:57;;;;;;;10.07;5.20;;;;;;;4.46;88.12;97904.09;7348691;19;20093;-73
2023/03/25 02:40:39;;;;;;;5.95;3.65;;;;;;;4.60;88.30;97920.59;7341829;19;20487;-73
2023/03/25 02:43:13;;;;;;;7.57;3.97;;;;;;;4.63;88.00;97901.03;7343506;19;20044;-66
2023/03/25 02:45:46;;;;;;;6.40;4.18;;;;;;;4.68;87.68;97883.91;7345982;19;20007;-67
2023/03/25 02:48:19;;;;;;;6.97;4.40;;;;;;;4.78;87.70;97884.03;7346260;19;20495;-66
2023/03/25 02:50:57;;;;;;;6.32;4.20;;;;;;;4.66;87.71;97875.25;7347775;19;20035;-66
2023/03/25 02:53:33;;;;;;;7.40;4.68;;;;;;;4.80;87.43;97878.66;7348161;19;20010;-69
2023/03/25 02:56:04;;;;;;;7.55;4.85;;;;;;;4.82;87.48;97887.31;7349443;19;20462;-74
2023/03/25 02:58:30;;;;;;;7.47;4.53;;;;;;;4.83;87.41;97881.91;7354660;19;20476;-74
2023/03/25 03:00:57;;;;;;;8.40;4.47;;;;;;;4.83;87.22;97887.19;7344505;19;20043;-69
2023/03/25 03:03:22;;;;;;;6.50;4.68;;;;;;;4.96;87.19;97877.38;7348778;19;20660;-68
2023/03/25 03:05:50;;;;;;;7.07;4.50;;;;;;;5.10;87.05;97882.41;7347111;19;20357;-69
2023/03/25 03:08:29;;;;;;;6.95;4.80;;;;;;;4.89;86.81;97864.75;7350763;19;20347;-67
2023/03/25 03:11:38;;;;;;;9.30;4.68;;;;;;;5.03;86.98;97864.53;7349510;19;20027;-64
2023/03/25 03:14:26;;;;;;;5.97;5.00;;;;;;;5.01;86.90;97861.16;7347808;19;20018;-73
2023/03/25 03:17:20;;;;;;;8.18;5.28;;;;;;;5.04;86.86;97848.56;7348064;19;20047;-70
2023/03/25 03:19:53;;;;;;;8.70;3.80;;;;;;;5.04;86.94;97848.56;7350032;19;20015;-70
2023/03/25 03:23:03;;;;;;;6.93;4.70;;;;;;;5.23;86.83;97837.41;7353666;19;20017;-71
2023/03/25 03:25:47;;;;;;;8.02;4.50;;;;;;;5.11;86.94;97838.34;7352105;19;20022;-72
2023/03/25 03:28:21;;;;;;;6.80;4.50;;;;;;;4.92;87.04;97827.56;7353676;19;20006;-72
2023/03/25 03:31:05;;;;;;;4.93;3.78;;;;;;;5.12;86.90;97829.47;7349090;19;20006;-73
2023/03/25 03:33:49;;;;;;;8.10;5.68;;;;;;;5.19;86.67;97824.56;7350106;19;20011;-72
2023/03/25 03:36:19;;;;;;;7.00;3.80;;;;;;;5.38;86.24;97820.34;7348939;19;20021;-71
2023/03/25 03:38:48;;;;;;;9.75;5.90;;;;;;;5.17;86.19;97816.75;7350418;19;20107;-72
2023/03/25 03:41:18;;;;;;;7.57;4.35;;;;;;;5.26;86.27;97797.53;7348083;19;20022;-73
2023/03/25 03:43:52;;;;;;;6.78;4.55;;;;;;;5.36;85.94;97813.50;7350583;19;20355;-72
2023/03/25 03:46:23;;;;;;;10.73;5.80;;;;;;;5.42;85.83;97800.63;7348055;19;20022;-72
2023/03/25 03:48:57;;;;;;;6.30;4.30;;;;;;;5.27;85.95;97804.50;7347068;19;20010;-77
2023/03/25 03:51:34;;;;;;;7.03;3.67;;;;;;;5.47;85.75;97797.63;7344906;19;20066;-71
2023/03/25 03:54:03;;;;;;;10.02;5.75;;;;;;;5.52;85.57;97799.91;7344362;19;20039;-73
2023/03/25 03:56:40;;;;;;;11.38;6.10;;;;;;;5.51;85.53;97792.94;7346594;19;20010;-73
2023/03/25 03:59:09;;;;;;;;;;;;;;;5.85;85.34;97786.59;7350961;19;20334;-72
2023/03/25 04:01:44;;;;;;;7.32;4.85;;;;;;;5.65;85.22;97774.97;7353875;19;19919;-71
2023/03/25 04:04:10;;;;;;;8.32;4.85;;;;;;;5.51;85.44;97777.94;7347282;19;20022;-71
2023/03/25 04:06:40;;;;;;;9.65;5.93;;;;;;;5.52;85.48;97776.13;7345074;19;20037;-70
2023/03/25 04:09:26;;;;;;;7.22;5.38;;;;;;;5.56;85.40;97761.69;7344721;19;20010;-71
2023/03/25 04:11:59;;;;;;;8.23;5.78;;;;;;;5.56;85.74;97767.81;7345704;19;20026;-70
2023/03/25 04:14:25;;;;;;;9.48;4.88;;;;;;;5.64;85.55;97761.91;7346587;19;20006;-70
2023/03/25 04:16:51;;;;;;;6.78;4.50;;;;;;;5.77;85.23;97763.41;7352403;19;20010;-72
2023/03/25 04:19:17;;;;;;;6.53;4.55;;;;;;;5.69;85.18;97752.63;7346380;19;20019;-72
2023/03/25 04:21:42;;;;;;;10.23;4.97;;;;;;;5.70;85.26;97745.53;7348350;19;20045;-71
2023/03/25 04:24:08;;;;;;;7.93;5.60;;;;;;;5.69;85.18;97735.94;7354441;19;20036;-71
2023/03/25 04:26:36;;;;;;;7.93;4.07;;;;;;;5.93;84.86;97739.22;7352401;19;20019;-72
2023/03/25 04:29:01;;;;;;;11.55;4.68;;;;;;;5.98;84.66;97744.16;7344731;19;20014;-70
2023/03/25 04:31:29;;;;;;;9.00;5.20;;;;;;;5.86;84.53;97731.91;7342750;19;20029;-71
2023/03/25 04:33:54;;;;;;;7.25;4.10;;;;;;;5.90;84.67;97730.72;7345408;19;20047;-71
2023/03/25 04:36:21;;;;;;;7.28;4.95;;;;;;;5.86;84.81;97724.81;7347377;19;20018;-72
2023/03/25 04:38:46;;;;;;;7.30;4.80;;;;;;;5.92;84.80;97724.31;7343125;19;20014;-73
2023/03/25 04:41:12;;;;;;;10.02;4.65;;;;;;;6.01;84.62;97723.56;7341961;19;20037;-71
2023/03/25 04:43:40;;;;;;;9.05;4.65;;;;;;;5.93;84.71;97718.06;7345622;19;20021;-72
2023/03/25 04:46:06;;;;;;;7.20;4.97;;;;;;;5.95;84.73;97713.50;7343754;19;20026;-71
2023/03/25 04:48:34;;;;;;;7.85;4.22;;;;;;;6.11;84.73;97702.47;7343403;19;20011;-73
2023/03/25 04:50:59;;;;;;;7.40;4.97;;;;;;;6.16;84.22;97687.06;7344808;19;20018;-72
2023/03/25 04:53:27;;;;;;;7.93;4.75;;;;;;;6.22;84.29;97693.63;7344666;19;20014;-72
2023/03/25 04:55:53;;;;;;;5.32;3.45;;;;;;;6.30;84.17;97705.25;7343249;19;20030;-71
2023/03/25 04:58:18;;;;;;;11.48;4.93;;;;;;;6.41;83.74;97685.81;7344376;19;20003;-72
2023/03/25 05:00:44;;;;;;;6.47;4.68;;;;;;;6.43;83.55;97689.16;7340919;19;20038;-72
2023/03/25 05:03:10;;;;;;;5.47;4.05;;;;;;;6.48;83.55;97695.72;7348688;19;20074;-71
2023/03/25 05:05:35;;;;;;;8.32;5.70;;;;;;;6.41;82.92;97694.59;7340397;19;20032;-71
2023/03/25 05:08:00;;;;;;;7.72;4.47;;;;;;;6.43;83.15;97691.81;7343362;19;20033;-71
2023/03/25 05:10:28;;;;;;;5.00;3.55;;;;;;;6.58;82.78;97690.47;7344034;19;20460;-69
2023/03/25 05:13:01;;;;;;;12.13;6.25;;;;;;;6.43;83.09;97697.91;7343804;19;20328;-72
2023/03/25 05:15:27;;;;;;;9.98;5.60;;;;;;;6.43;83.03;97687.31;7346989;19;20093;-71
2023/03/25 05:17:52;;;;;;;12.20;6.47;;;;;;;6.47;83.01;97687.91;7342194;19;20465;-71
2023/03/25 05:20:16;;;;;;;9.85;5.68;;;;;;;6.56;82.92;97695.06;7342726;19;20480;-71
2023/03/25 05:22:44;;;;;;;11.95;6.15;;;;;;;6.36;83.15;97695.94;7341946;19;20037;-70
2023/03/25 05:25:09;;;;;;;8.93;4.60;;;;;;;6.64;83.16;97692.59;7347228;19;20007;-71
2023/03/25 05:27:35;;;;;;;8.68;5.20;;;;;;;6.79;82.95;97696.56;7343236;19;20309;-70
2023/03/25 05:30:00;;;;;;;8.35;5.53;;;;;;;6.71;82.78;97685.78;7342796;19;20011;-70
2023/03/25 05:32:28;;;;;;;9.40;5.82;;;;;;;6.65;82.71;97685.50;7343008;19;20051;-70
2023/03/25 05:34:53;;;;;;;9.23;6.18;;;;;;;6.75;82.59;97683.72;7342873;19;20102;-70
2023/03/25 05:37:18;;;;;;;5.80;4.15;;;;;;;6.95;82.49;97687.28;7339436;19;20031;-70
2023/03/25 05:39:42;;;;;;;8.05;5.20;;;;;;;6.90;82.46;97688.50;7342532;19;20007;-71
2023/03/25 05:42:09;;;;;;;8.52;5.45;;;;;;;6.84;82.64;97675.81;7346485;19;20019;-72
2023/03/25 05:44:34;;;;;;;6.65;5.28;;;;;;;6.93;82.65;97674.16;7360831;19;20014;-73
2023/03/25 05:47:01;;;;;;;11.32;5.85;;;;;;;6.87;82.63;97670.25;7360098;19;20006;-72
2023/03/25 05:49:26;;;;;;;9.82;5.43;;;;;;;7.03;82.42;97674.19;7359259;19;20009;-72
2023/03/25 05:51:52;;;;;;;9.77;5.55;;;;;;;6.98;82.45;97666.66;7361412;19;20055;-70
2023/03/25 05:54:17;;;;;;;7.97;6.07;;;;;;;6.87;82.64;97670.25;7363296;19;20014;-72
2023/03/25 05:56:42;;;;;;;9.02;6.18;;;;;;;7.01;82.89;97670.81;7362952;19;20461;-72
2023/03/25 05:59:09;;;;;;;9.00;5.53;;;;;;;7.24;82.82;97674.94;7355774;19;20010;-73
2023/03/25 06:01:40;;;;;;;9.15;5.68;;;;;;;7.66;82.25;97675.56;7359430;19;20044;-74
2023/03/25 06:04:08;;;;;;;8.80;5.47;;;;;;;8.81;80.72;97666.50;7360596;19;20078;-71
2023/03/25 06:06:34;;;;;;;8.82;5.72;;;;;;;10.08;77.00;97663.66;7362177;19;20018;-67
2023/03/25 06:09:01;;;;;;;7.03;4.97;;;;;;;10.70;73.53;97653.78;7355593;19;20017;-68
2023/03/25 06:11:25;;;;;;;4.78;3.67;;;;;;;10.59;72.71;97664.72;7358084;19;20019;-69
2023/03/25 06:13:50;;;;;;;7.13;4.40;;;;;;;10.32;72.73;97648.88;7355654;19;20477;-68
2023/03/25 06:16:21;;;;;;;5.32;4.18;;;;;;;9.98;73.80;97654.94;7355014;19;20526;-68
2023/03/25 06:18:50;;;;;;;7.50;5.15;;;;;;;9.27;74.27;97646.09;7363579;19;20010;-68
2023/03/25 06:21:21;;;;;;;8.93;6.32;;;;;;;9.20;74.82;97656.50;7363836;19;20010;-67
2023/03/25 06:23:48;;;;;;;6.65;4.75;;;;;;;9.23;75.57;97661.53;7366469;19;20085;-67
2023/03/25 06:26:17;;;;;;;8.80;6.15;;;;;;;8.79;76.25;97657.03;7366789;19;20018;-68
2023/03/25 06:28:46;;;;;;;10.38;7.28;;;;;;;8.53;76.75;97649.72;7372419;19;20331;-69
2023/03/25 06:31:21;;;;;;;7.82;5.80;;;;;;;8.51;77.44;97656.16;7366765;19;20037;-68
2023/03/25 06:33:48;;;;;;;9.50;6.13;;;;;;;8.54;77.86;97653.22;7365475;19;20023;-69
2023/03/25 06:36:19;;;;;;;18.83;6.68;;;;;;;8.42;78.43;97649.91;7364239;19;20019;-69
2023/03/25 06:38:49;;;;;;;9.23;6.65;;;;;;;8.33;78.74;97662.22;7366277;19;20027;-66
2023/03/25 06:41:19;;;;;;;8.73;6.03;;;;;;;8.37;78.75;97657.44;7367665;19;20104;-70
2023/03/25 06:43:48;;;;;;;9.90;6.43;;;;;;;8.13;79.80;97657.88;7368292;19;20338;-68
2023/03/25 06:46:32;;;;;;;14.07;7.25;;;;;;;7.94;80.83;97653.47;7365795;19;20011;-68
2023/03/25 06:49:14;;;;;;;11.60;6.80;;;;;;;7.79;82.18;97649.56;7365847;19;20010;-68
2023/03/25 06:51:41;;;;;;;10.30;7.00;;;;;;;7.78;82.46;97655.03;7367239;19;20018;-66
2023/03/25 06:54:08;;;;;;;9.90;6.55;;;;;;;7.64;83.61;97649.16;7357350;19;20014;-67
2023/03/25 06:56:33;;;;;;;16.40;7.88;;;;;;;7.58;84.48;97644.41;7354843;19;20504;-69
2023/03/25 06:58:58;;;;;;;13.90;9.02;;;;;;;7.51;85.37;97647.75;7352628;19;20010;-69
2023/03/25 07:01:23;;;;;;;12.25;7.90;;;;;;;7.48;85.80;97640.91;7343708;19;20013;-71
2023/03/25 07:03:49;;;;;;;14.10;8.98;;;;;;;7.41;86.50;97653.06;7354592;19;20015;-67
2023/03/25 07:06:19;;;;;;;13.10;7.97;;;;;;;7.44;86.71;97644.84;7358309;19;20043;-69
2023/03/25 07:08:44;;;;;;;14.48;7.93;;;;;;;7.37;87.58;97642.88;7357813;19;20022;-69
2023/03/25 07:11:11;;;;;;;13.68;8.20;;;;;;;7.36;87.97;97649.97;7354606;19;20014;-68
2023/03/25 07:13:36;;;;;;;14.10;9.48;;;;;;;-143.58;100.00;61926.94;7358117;19;20021;-68
2023/03/25 07:16:02;;;;;;;17.17;8.55;;;;;;;-143.58;100.00;61926.94;7356243;19;20085;-68
2023/03/25 07:18:27;;;;;;;12.38;8.55;;;;;;;-143.58;100.00;61926.94;7354335;19;20041;-69
2023/03/25 07:20:53;;;;;;;14.80;10.15;;;;;;;-143.58;100.00;61926.94;7357001;19;20006;-68
2023/03/25 07:23:18;;;;;;;19.48;9.30;;;;;;;-143.58;100.00;61926.94;7365535;19;20010;-66
2023/03/25 07:25:43;;;;;;;13.23;8.85;;;;;;;-143.58;100.00;61926.94;7364595;19;20025;-69
2023/03/25 07:28:08;;;;;;;10.07;6.93;;;;;;;-143.58;100.00;61926.94;7359016;19;20022;-69
2023/03/25 07:30:39;;;;;;;12.90;8.55;;;;;;;-143.58;100.00;61926.94;7360795;19;20041;-70
2023/03/25 07:33:05;;;;;;;12.30;8.40;;;;;;;-143.58;100.00;61926.94;7361422;19;20045;-70
2023/03/25 07:35:30;;;;;;;12.73;7.88;;;;;;;-143.58;100.00;61926.94;7359569;19;20019;-70
2023/03/25 07:37:56;;;;;;;17.35;8.73;;;;;;;-143.58;100.00;61926.94;7362937;19;20010;-71
2023/03/25 07:40:23;;;;;;;12.32;8.45;;;;;;;-143.58;100.00;61926.94;7360417;19;20015;-72
2023/03/25 07:42:51;;;;;;;15.32;9.32;;;;;;;-143.58;100.00;61926.94;7366067;19;20333;-74
2023/03/25 07:45:23;;;;;;;15.00;10.68;;;;;;;-143.58;100.00;61926.94;7360467;19;20014;-72
2023/03/25 07:47:52;;;;;;;13.35;8.77;;;;;;;-143.58;100.00;61926.94;7360884;19;20007;-72
2023/03/25 07:50:18;;;;;;;13.75;8.25;;;;;;;-143.58;100.00;61926.94;7358010;19;20017;-71
2023/03/25 07:52:44;;;;;;;13.93;9.23;;;;;;;-143.58;100.00;61926.94;7355534;19;20473;-72
2023/03/25 07:55:09;;;;;;;14.57;9.70;;;;;;;-143.58;100.00;61926.94;7357301;19;20011;-70
2023/03/25 07:57:36;;;;;;;15.82;10.88;;;;;;;-143.58;100.00;61926.94;7358592;19;20038;-71
2023/03/25 08:00:04;;;;;;;12.40;8.25;;;;;;;-143.58;100.00;61926.94;7353404;19;20018;-71
2023/03/25 08:02:38;;;;;;;14.55;9.57;;;;;;;-143.58;100.00;61926.94;7362698;19;20040;-70
2023/03/25 08:05:05;;;;;;;17.52;10.45;;;;;;;-143.58;100.00;61926.94;7356749;19;20336;-71
2023/03/25 08:07:31;;;;;;;15.63;9.68;;;;;;;-143.58;100.00;61926.94;7357331;19;20013;-70
2023/03/25 08:09:55;;;;;;;15.95;10.60;;;;;;;-143.58;100.00;61926.94;7356209;19;20443;-71
2023/03/25 08:12:23;;;;;;;16.83;8.85;;;;;;;-143.58;100.00;61926.94;7361539;19;20007;-73
2023/03/25 08:14:49;;;;;;;13.57;9.73;;;;;;;-143.58;100.00;61926.94;7361877;19;20036;-73
2023/03/25 08:17:15;;;;;;;14.07;10.68;;;;;;;-143.58;100.00;61926.94;7358839;19;20007;-71
2023/03/25 08:19:41;;;;;;;13.73;11.25;;;;;;;-143.58;100.00;61926.94;7359945;19;20353;-70
2023/03/25 08:22:06;;;;;;;17.63;12.82;;;;;;;-143.58;100.00;61926.94;7360528;19;20014;-72
2023/03/25 08:24:32;;;;;;;15.85;11.65;;;;;;;-143.58;100.00;61926.94;7358391;19;20035;-72
2023/03/25 08:26:59;;;;;;;16.95;10.25;;;;;;;-143.58;100.00;61926.94;7354304;19;20106;-71
2023/03/25 08:29:26;;;;;;;18.23;11.13;;;;;;;-143.58;100.00;61926.94;7359302;19;20026;-74
2023/03/25 08:31:53;;;;;;;15.95;10.90;;;;;;;-143.58;100.00;61926.94;7361001;19;20093;-74
2023/03/25 08:34:21;;;;;;;13.35;10.38;;;;;;;-143.58;100.00;61926.94;7357631;19;20060;-72
2023/03/25 08:36:46;;;;;;;18.35;10.55;;;;;;;-143.58;100.00;61926.94;7353508;19;20015;-70
2023/03/25 08:39:16;;;;;;;14.20;8.90;;;;;;;-143.58;100.00;61926.94;7354065;19;20065;-73
2023/03/25 08:41:42;;;;;;;14.57;10.23;;;;;;;-143.58;100.00;61926.94;7351327;19;20033;-72
2023/03/25 08:44:08;;;;;;;16.88;11.23;;;;;;;-143.58;100.00;61926.94;7351840;19;20089;-70
2023/03/25 08:46:33;;;;;;;17.10;10.85;;;;;;;-143.58;100.00;61926.94;7362062;19;20461;-72
2023/03/25 08:49:00;;;;;;;16.52;12.23;;;;;;;-143.58;100.00;61926.94;7356117;19;20027;-72
2023/03/25 08:51:24;;;;;;;17.77;10.95;;;;;;;-143.58;100.00;61926.94;7359065;19;20027;-71
2023/03/25 08:53:51;;;;;;;16.70;11.02;;;;;;;-143.58;100.00;61926.94;7361697;19;20007;-71
2023/03/25 08:56:17;;;;;;;16.88;10.68;;;;;;;-143.58;100.00;61926.94;7362562;19;20055;-70
2023/03/25 08:58:42;;;;;;;12.40;9.95;;;;;;;-143.58;100.00;61926.94;7361479;19;20018;-71
2023/03/25 09:01:08;;;;;;;15.65;11.30;;;;;;;-143.58;100.00;61926.94;7357460;19;20032;-73
2023/03/25 09:03:33;;;;;;;14.88;9.93;;;;;;;-143.58;100.00;61926.94;7353945;19;20010;-71
2023/03/25 09:06:03;;;;;;;17.73;11.52;;;;;;;-143.58;100.00;61926.94;7346592;19;20022;-72
2023/03/25 09:08:29;;;;;;;17.30;10.68;;;;;;;-143.58;100.00;61926.94;7352049;19;20033;-72
2023/03/25 09:10:56;;;;;;;20.42;11.75;;;;;;;-143.58;100.00;61926.94;7355990;19;20007;-71
2023/03/25 09:13:23;;;;;;;17.02;9.40;;;;;;;-143.58;100.00;61926.94;7352099;19;20022;-71
2023/03/25 09:15:48;;;;;;;17.10;10.90;;;;;;;-143.58;100.00;61926.94;7353763;19;20014;-70
2023/03/25 09:18:14;;;;;;;16.55;10.43;;;;;;;-143.58;100.00;61926.94;7353154;19;20011;-70
2023/03/25 09:23:11;;;;;;;15.95;10.23;;;;;;;-143.58;100.00;61926.94;7350329;19;20028;-72
2023/03/25 09:25:38;;;;;;;15.25;11.07;;;;;;;-143.58;100.00;61926.94;7354469;19;20014;-71
2023/03/25 09:28:03;;;;;;;14.23;10.82;;;;;;;-143.58;100.00;61926.94;7354046;19;20011;-70
2023/03/25 09:30:29;;;;;;;22.60;11.60;;;;;;;-143.58;100.00;61926.94;7357541;19;20143;-74
2023/03/25 09:32:55;;;;;;;16.83;10.98;;;;;;;-143.58;100.00;61926.94;7354357;19;20719;-71
2023/03/25 09:35:20;;;;;;;16.58;10.70;;;;;;;-143.58;100.00;61926.94;7352024;19;20025;-71
2023/03/25 09:37:47;;;;;;;13.98;9.55;;;;;;;-143.58;100.00;61926.94;7342378;19;20349;-72
2023/03/25 09:40:16;;;;;;;18.33;11.77;;;;;;;-143.58;100.00;61926.94;7351817;19;20033;-71
2023/03/25 09:43:14;;;;;;;16.02;11.63;;;;;;;-143.58;100.00;61926.94;7351605;19;20310;-71
2023/03/25 09:45:47;;;;;;;14.75;10.52;;;;;;;-143.58;100.00;61926.94;7351286;19;20027;-71
2023/03/25 09:48:19;;;;;;;16.67;10.45;;;;;;;-143.58;100.00;61926.94;7350503;19;20015;-73
2023/03/25 09:50:47;;;;;;;18.20;11.50;;;;;;;-143.58;100.00;61926.94;7357939;19;20006;-70
2023/03/25 09:53:15;;;;;;;18.48;10.98;;;;;;;-143.58;100.00;61926.94;7359759;19;20010;-71
2023/03/25 09:55:45;;;;;;;18.45;11.32;;;;;;;-143.58;100.00;61926.94;7355779;19;20003;-71
2023/03/25 09:58:15;;;;;;;17.60;11.48;;;;;;;-143.58;100.00;61926.94;7353050;19;20025;-71
2023/03/25 10:00:41;;;;;;;17.25;10.38;;;;;;;-143.58;100.00;61926.94;7353136;19;20515;-71
2023/03/25 10:03:27;;;;;;;16.63;10.48;;;;;;;-143.58;100.00;61926.94;7354370;19;20040;-71
2023/03/25 10:06:12;;;;;;;14.05;11.38;;;;;;;-143.58;100.00;61926.94;7348256;19;20054;-72
2023/03/25 10:09:09;;;;;;;22.15;11.38;;;;;;;-143.58;100.00;61926.94;7353475;19;20007;-71
2023/03/25 10:12:14;;;;;;;17.13;11.02;;;;;;;-143.58;100.00;61926.94;7347780;19;20477;-71
2023/03/25 10:14:55;;;;;;;20.23;12.18;;;;;;;-143.58;100.00;61926.94;7344051;19;20484;-73
2023/03/25 10:17:27;;;;;;;12.75;10.10;;;;;;;-143.58;100.00;61926.94;7345236;19;20013;-71
2023/03/25 10:20:29;;;;;;;14.07;10.10;;;;;;;-143.58;100.00;61926.94;7351184;19;20592;-72
2023/03/25 10:23:10;;;;;;;12.85;9.77;;;;;;;-143.58;100.00;61926.94;7346749;19;20025;-73
2023/03/25 10:25:42;;;;;;;14.77;10.23;;;;;;;-143.58;100.00;61926.94;7343753;19;20011;-70
2023/03/25 10:28:24;;;;;;;15.65;11.27;;;;;;;-143.58;100.00;61926.94;7341775;19;20017;-71
2023/03/25 10:30:52;;;;;;;18.65;11.50;;;;;;;-143.58;100.00;61926.94;7350656;19;20007;-72
2023/03/25 10:33:34;;;;;;;15.80;11.25;;;;;;;-143.58;100.00;61926.94;7350368;19;20022;-72
2023/03/25 10:36:01;;;;;;;19.17;12.82;;;;;;;-143.58;100.00;61926.94;7359867;19;20026;-72
2023/03/25 10:38:30;;;;;;;16.88;11.55;;;;;;;-143.58;100.00;61926.94;7357066;19;20024;-72
2023/03/25 10:41:02;;;;;;;14.85;9.02;;;;;;;-143.58;100.00;61926.94;7351298;19;20035;-72
2023/03/25 10:43:33;;;;;;;16.10;11.25;;;;;;;-143.58;100.00;61926.94;7355114;19;20022;-73
2023/03/25 10:46:12;;;;;;;15.68;10.88;;;;;;;-143.58;100.00;61926.94;7350273;19;20014;-73
2023/03/25 10:48:38;;;;;;;16.95;11.02;;;;;;;-143.58;100.00;61926.94;7354680;19;20021;-74
2023/03/25 10:51:10;;;;;;;14.07;10.48;;;;;;;-143.58;100.00;61926.94;7353974;19;20036;-70
2023/03/25 10:53:40;;;;;;;14.05;11.05;;;;;;;-143.58;100.00;61926.94;7352528;19;20441;-72
2023/03/25 10:56:13;;;;;;;17.08;11.88;;;;;;;-143.58;100.00;61926.94;7351690;19;20014;-71
2023/03/25 10:58:41;;;;;;;15.25;10.65;;;;;;;-143.58;100.00;61926.94;7353207;19;20453;-71
2023/03/25 11:01:13;;;;;;;14.45;11.05;;;;;;;-143.58;100.00;61926.94;7346805;19;20082;-73
2023/03/25 11:03:40;;;;;;;15.98;9.77;;;;;;;-143.58;100.00;61926.94;7349455;19;20015;-72
2023/03/25 11:06:06;;;;;;;20.35;11.70;;;;;;;-143.58;100.00;61926.94;7350029;19;20504;-71
2023/03/25 11:08:32;;;;;;;13.88;10.93;;;;;;;-143.58;100.00;61926.94;7354189;19;20014;-73
2023/03/25 11:10:59;;;;;;;16.52;12.50;;;;;;;-143.58;100.00;61926.94;7352401;19;20022;-72
2023/03/25 11:13:29;;;;;;;15.23;10.52;;;;;;;-143.58;100.00;61926.94;7350156;19;20014;-72
2023/03/25 11:16:01;;;;;;;15.60;11.02;;;;;;;-143.58;100.00;61926.94;7348957;19;20039;-73
2023/03/25 11:18:34;;;;;;;15.48;11.65;;;;;;;-143.58;100.00;61926.94;7349523;19;20013;-71
2023/03/25 11:21:04;;;;;;;17.30;11.03;;;;;;;-143.58;100.00;61926.94;7347594;19;20014;-72
2023/03/25 11:23:36;;;;;;;15.38;10.75;;;;;;;-143.58;100.00;61926.94;7349254;19;20282;-74
2023/03/25 11:27:17;;;;;;;18.42;13.63;;;;;;;9.98;84.08;97710.84;7374370;19;20377;-73
2023/03/25 11:29:56;;;;;;;16.90;11.75;;;;;;;10.11;84.15;97705.13;7379617;19;20071;-70
2023/03/25 11:32:37;;;;;;;18.17;12.35;;;;;;;10.16;83.97;97702.81;7381627;19;20010;-72
2023/03/25 11:37:23;;;;;;;13.90;10.68;;;;;;;10.23;83.63;97697.75;7103949;19;20413;-69
2023/03/25 11:39:54;;;;;;;17.88;12.38;;;;;;;10.21;83.54;97697.06;7266184;19;20599;-71
2023/03/25 11:42:27;;;;;;;22.15;11.25;;;;;;;10.24;83.78;97705.59;7382443;19;20089;-71